Time;durP1;ratioP1;P1;durP2;ratioP2;P2;SDS_P1;SDS_P2;PMS_P1;PMS_P2;Temp;Humidity;BMP_temperature;BMP_pressure;BME280_temperature;BME280_humidity;BME280_pressure;Samples;Min_cycle;Max_cycle;Signal;HPM_P1;HPM_P2
2021/04/28 00:00:27;;;;;;;35.08;13.18;;;;;;;0.79;57.12;96844.56;1831020;77;26754;-81
2021/04/28 00:02:57;;;;;;;30.10;13.08;;;;;;;0.74;56.97;96845.54;1840952;77;25740;-81
2021/04/28 00:05:25;;;;;;;30.92;12.55;;;;;;;0.68;57.17;96844.88;1846426;77;27546;-81
2021/04/28 00:07:54;;;;;;;31.68;13.78;;;;;;;0.62;57.23;96838.87;1839560;77;26671;-81
2021/04/28 00:10:26;;;;;;;30.05;12.23;;;;;;;0.57;57.42;96839.39;1808312;77;25771;-81
2021/04/28 00:12:54;;;;;;;31.10;12.03;;;;;;;0.58;57.83;96840.22;1840076;77;25665;-81
2021/04/28 00:15:26;;;;;;;28.10;12.93;;;;;;;0.54;57.77;96835.72;1810498;77;25811;-81
2021/04/28 00:17:54;;;;;;;34.50;12.80;;;;;;;0.51;57.87;96835.20;1779265;77;27488;-81
2021/04/28 00:20:24;;;;;;;30.72;13.93;;;;;;;0.49;57.82;96833.20;1750204;80;25708;-81
2021/04/28 00:22:51;;;;;;;40.28;15.55;;;;;;;0.46;57.89;96837.04;1702620;82;25663;-81
2021/04/28 00:25:22;;;;;;;37.15;13.85;;;;;;;0.45;57.98;96833.22;1747214;80;26401;-81
2021/04/28 00:27:50;;;;;;;48.48;16.52;;;;;;;0.41;57.97;96827.89;1721224;81;25807;-81
2021/04/28 00:30:20;;;;;;;45.30;15.83;;;;;;;0.40;58.11;96828.88;1734580;81;27660;-81
2021/04/28 00:32:49;;;;;;;42.65;15.05;;;;;;;0.42;58.14;96833.53;1750894;80;25847;-81
2021/04/28 00:35:17;;;;;;;37.38;14.38;;;;;;;0.29;58.05;96830.02;1702127;82;25753;-81
2021/04/28 00:37:46;;;;;;;34.85;13.22;;;;;;;0.26;58.33;96837.80;1734469;81;26457;-81
2021/04/28 00:40:23;;;;;;;35.78;13.45;;;;;;;0.29;58.29;96830.02;1750394;81;26254;-81
2021/04/28 00:42:52;;;;;;;31.80;12.50;;;;;;;0.25;58.37;96839.28;1744081;81;27496;-81
2021/04/28 00:45:21;;;;;;;29.07;13.03;;;;;;;0.17;58.27;96838.77;1751160;81;25788;-81
2021/04/28 00:47:49;;;;;;;30.25;13.05;;;;;;;0.17;58.40;96842.75;1746993;81;25759;-81
2021/04/28 00:50:21;;;;;;;28.83;13.38;;;;;;;0.22;58.29;96836.48;1751169;81;25885;-81
2021/04/28 00:52:49;;;;;;;39.83;14.47;;;;;;;0.26;58.34;96839.13;1747117;81;25348;-81
2021/04/28 00:55:16;;;;;;;33.98;14.05;;;;;;;0.28;58.34;96835.81;1751205;81;27563;-81
2021/04/28 00:57:43;;;;;;;37.13;14.55;;;;;;;0.28;58.21;96839.80;1746798;81;26062;-81
2021/04/28 01:00:15;;;;;;;31.45;13.40;;;;;;;0.30;58.14;96836.49;1751153;81;25693;-81
2021/04/28 01:02:43;;;;;;;34.10;13.08;;;;;;;0.37;58.08;96845.95;1746994;81;25765;-82
2021/04/28 01:05:13;;;;;;;30.25;11.73;;;;;;;0.36;58.09;96843.80;1751290;81;25764;-81
2021/04/28 01:07:44;;;;;;;32.53;13.18;;;;;;;0.24;58.16;96841.10;1747146;81;27490;-81
2021/04/28 01:10:17;;;;;;;32.15;12.75;;;;;;;0.13;58.22;96847.20;1751328;81;26073;-82
2021/04/28 01:12:47;;;;;;;34.60;13.98;;;;;;;0.16;58.27;96853.03;1747029;81;25760;-81
2021/04/28 01:15:20;;;;;;;33.08;14.25;;;;;;;0.20;58.34;96847.75;1751273;81;26485;-82
2021/04/28 01:17:49;;;;;;;34.38;14.38;;;;;;;0.18;58.49;96848.89;1768516;79;25841;-81
2021/04/28 01:20:20;;;;;;;38.65;15.85;;;;;;;0.14;58.58;96851.52;1783915;80;28453;-82
2021/04/28 01:22:51;;;;;;;36.33;15.03;;;;;;;0.11;58.77;96852.70;1779622;80;25754;-81
2021/04/28 01:25:24;;;;;;;35.52;15.13;;;;;;;0.11;58.91;96847.39;1783970;80;25945;-81
2021/04/28 01:28:06;;;;;;;31.12;13.22;;;;;;;0.10;59.02;96852.36;1779731;79;25913;-81
2021/04/28 01:30:40;;;;;;;;;;;;;;;0.05;58.95;96848.02;1786737;80;25805;-82
2021/04/28 01:33:17;;;;;;;39.42;13.53;;;;;;;-0.02;59.08;96851.81;1736936;78;27594;-85
2021/04/28 01:35:49;;;;;;;34.18;13.95;;;;;;;-0.08;59.29;96854.25;1683133;85;25844;-84
2021/04/28 01:38:20;;;;;;;28.60;12.30;;;;;;;-0.09;59.30;96849.93;1679825;83;25842;-83
2021/04/28 01:40:49;;;;;;;30.97;12.53;;;;;;;-0.09;59.39;96847.28;1678020;84;25753;-85
2021/04/28 01:43:20;;;;;;;25.45;12.55;;;;;;;-0.11;59.40;96850.58;1678829;84;25759;-84
2021/04/28 01:45:55;;;;;;;24.63;11.12;;;;;;;-0.14;59.17;96853.08;1683176;85;27652;-84
2021/04/28 01:48:24;;;;;;;20.72;9.85;;;;;;;-0.12;59.25;96851.59;1678677;83;25822;-85
2021/04/28 01:50:54;;;;;;;22.35;10.03;;;;;;;-0.14;59.16;96853.08;1683177;85;25920;-84
2021/04/28 01:53:26;;;;;;;24.95;10.48;;;;;;;-0.12;59.25;96852.40;1678716;83;25731;-84
2021/04/28 01:55:58;;;;;;;32.17;11.05;;;;;;;-0.10;59.18;96845.12;1683252;83;25803;-85
2021/04/28 01:58:28;;;;;;;;;;;;;;;-0.07;59.20;96849.28;1681349;83;27500;-85
2021/04/28 02:00:58;;;;;;;25.77;10.45;;;;;;;-0.09;59.45;96843.30;1683237;83;25746;-84
2021/04/28 02:03:28;;;;;;;27.75;11.38;;;;;;;-0.19;59.29;96843.92;1678776;85;25625;-84
2021/04/28 02:05:59;;;;;;;41.63;17.25;;;;;;;-0.23;59.42;96841.23;1683214;85;26254;-86
2021/04/28 02:08:28;;;;;;;44.25;21.05;;;;;;;-0.26;59.44;96838.42;1678756;83;26430;-85
2021/04/28 02:11:03;;;;;;;39.78;19.95;;;;;;;-0.26;59.52;96844.23;1683153;85;28484;-84
2021/04/28 02:13:36;;;;;;;32.48;17.77;;;;;;;-0.28;59.40;96835.09;1678725;83;25730;-84
2021/04/28 02:16:07;;;;;;;39.18;18.95;;;;;;;-0.27;59.49;96836.77;1683255;85;26278;-84
2021/04/28 02:18:37;;;;;;;38.73;20.25;;;;;;;-0.33;59.52;96836.55;1678773;85;26609;-85
2021/04/28 02:21:06;;;;;;;34.75;18.75;;;;;;;-0.36;59.50;96835.03;1683092;85;25679;-85
2021/04/28 02:23:39;;;;;;;40.40;19.10;;;;;;;-0.38;59.73;96831.73;1678805;85;27512;-84
2021/04/28 02:26:08;;;;;;;36.90;18.45;;;;;;;-0.40;59.83;96832.38;1657459;85;26361;-84
2021/04/28 02:28:38;;;;;;;30.62;14.98;;;;;;;-0.44;59.95;96827.88;1683140;83;26321;-85
2021/04/28 02:31:07;;;;;;;30.92;14.55;;;;;;;-0.42;59.83;96830.37;1678811;83;26720;-85
2021/04/28 02:33:37;;;;;;;24.80;11.40;;;;;;;-0.36;59.74;96832.38;1683224;83;25977;-85
2021/04/28 02:36:08;;;;;;;28.23;11.65;;;;;;;-0.39;59.86;96824.77;1678675;83;27527;-84
2021/04/28 02:38:51;;;;;;;26.95;11.60;;;;;;;-0.41;59.85;96828.89;1683117;85;25690;-84
2021/04/28 02:41:22;;;;;;;22.82;10.15;;;;;;;-0.43;59.84;96837.49;1678657;83;25822;-84
2021/04/28 02:43:52;;;;;;;23.65;11.38;;;;;;;-0.44;59.87;96835.83;1683460;83;25812;-84
2021/04/28 02:46:22;;;;;;;22.67;10.20;;;;;;;-0.47;59.84;96831.33;1678717;83;25861;-85
2021/04/28 02:48:52;;;;;;;28.10;10.43;;;;;;;-0.50;60.00;96832.49;1683150;83;27533;-83
2021/04/28 02:51:19;;;;;;;28.87;11.65;;;;;;;-0.52;60.05;96833.14;1678629;83;25804;-84
2021/04/28 02:53:48;;;;;;;24.52;10.80;;;;;;;-0.51;60.10;96828.17;1684340;85;25856;-84
2021/04/28 02:56:16;;;;;;;28.10;11.08;;;;;;;-0.48;59.97;96833.63;1675850;83;25725;-84
2021/04/28 02:58:43;;;;;;;26.93;10.93;;;;;;;-0.47;60.08;96833.97;1670707;83;25898;-84
2021/04/28 03:01:11;;;;;;;21.00;10.88;;;;;;;-0.51;60.12;96842.76;1668809;85;27503;-85
2021/04/28 03:03:42;;;;;;;24.85;10.95;;;;;;;-0.56;60.14;96840.22;1680724;83;25831;-84
2021/04/28 03:06:11;;;;;;;26.73;10.80;;;;;;;-0.63;60.14;96841.36;1699855;83;25752;-84
2021/04/28 03:08:39;;;;;;;22.87;11.60;;;;;;;-0.65;60.32;96839.84;1678704;83;25860;-83
2021/04/28 03:11:07;;;;;;;24.82;10.25;;;;;;;-0.66;60.47;96837.68;1683663;85;26436;-85
2021/04/28 03:13:34;;;;;;;22.60;10.13;;;;;;;-0.69;60.34;96840.63;1682149;83;28487;-85
2021/04/28 03:16:01;;;;;;;20.43;10.38;;;;;;;-0.65;60.35;96838.02;1682168;83;25769;-84
2021/04/28 03:18:29;;;;;;;22.67;10.48;;;;;;;-0.64;60.35;96837.03;1683898;85;25744;-84
2021/04/28 03:20:59;;;;;;;21.87;10.28;;;;;;;-0.67;60.43;96841.31;1682179;85;26361;-84
2021/04/28 03:23:27;;;;;;;20.48;11.78;;;;;;;-0.66;60.57;96833.70;1682108;83;25874;-85
2021/04/28 03:25:55;;;;;;;31.35;13.13;;;;;;;-0.70;60.62;96842.11;1682153;83;28394;-84
2021/04/28 03:28:23;;;;;;;24.32;11.25;;;;;;;-0.75;60.57;96839.95;1682031;83;25845;-85
2021/04/28 03:30:50;;;;;;;32.58;12.53;;;;;;;-0.76;60.67;96836.95;1683926;85;25700;-85
2021/04/28 03:33:18;;;;;;;33.38;12.37;;;;;;;-0.86;60.78;96836.22;1669552;84;25881;-84
2021/04/28 03:35:46;;;;;;;29.72;12.93;;;;;;;-0.93;60.97;96830.69;1682178;85;25749;-84
2021/04/28 03:38:13;;;;;;;26.68;12.47;;;;;;;-0.94;60.98;96829.52;1683885;85;26490;-84
2021/04/28 03:40:41;;;;;;;29.05;13.30;;;;;;;-0.91;61.11;96837.16;1682123;85;25871;-84
2021/04/28 03:43:08;;;;;;;26.93;12.75;;;;;;;-0.89;61.11;96833.38;1682116;83;25653;-83
2021/04/28 03:45:35;;;;;;;27.58;12.15;;;;;;;-0.88;61.02;96834.22;1682085;83;26420;-85
2021/04/28 03:48:04;;;;;;;22.77;11.65;;;;;;;-0.86;61.06;96840.20;1683832;85;25835;-84
2021/04/28 03:50:31;;;;;;;27.80;11.43;;;;;;;-0.84;61.11;96840.84;1682154;83;27575;-84
2021/04/28 03:52:59;;;;;;;25.40;9.90;;;;;;;-0.84;61.25;96836.38;1682015;83;26047;-85
2021/04/28 03:55:27;;;;;;;24.57;10.25;;;;;;;-0.82;61.13;96841.04;1682099;83;25888;-85
2021/04/28 03:57:54;;;;;;;24.63;11.53;;;;;;;-0.82;61.24;96846.83;1681013;83;25812;-85
2021/04/28 04:00:21;;;;;;;20.97;9.88;;;;;;;-0.81;61.20;96849.82;1678833;83;25795;-86
2021/04/28 04:02:49;;;;;;;32.53;11.33;;;;;;;-0.78;61.20;96853.00;1684365;85;27611;-86
2021/04/28 04:05:17;;;;;;;27.45;10.45;;;;;;;-0.74;61.19;96856.19;1682034;83;26415;-86
2021/04/28 04:07:44;;;;;;;26.45;10.75;;;;;;;-0.74;61.17;96855.70;1682164;83;25804;-85
2021/04/28 04:10:13;;;;;;;51.23;20.72;;;;;;;-0.73;61.25;96856.53;1680281;83;25877;-85
2021/04/28 04:12:40;;;;;;;38.92;16.65;;;;;;;-0.70;61.28;96860.17;1678689;83;25878;-85
2021/04/28 04:15:09;;;;;;;36.95;14.13;;;;;;;-0.66;61.28;96854.08;1682998;83;27397;-85
2021/04/28 04:17:38;;;;;;;37.83;14.33;;;;;;;-0.62;61.21;96858.92;1678583;85;25915;-85
2021/04/28 04:20:08;;;;;;;36.80;14.47;;;;;;;-0.54;61.30;96857.64;1683165;85;25766;-86
2021/04/28 04:22:35;;;;;;;30.90;13.45;;;;;;;-0.50;61.29;96856.84;1678693;84;27028;-84
2021/04/28 04:25:07;;;;;;;34.15;14.03;;;;;;;-0.46;61.37;96857.69;1683113;85;25718;-85
2021/04/28 04:27:35;;;;;;;26.48;13.32;;;;;;;-0.43;61.34;96856.05;1678713;85;26481;-86
2021/04/28 04:30:06;;;;;;;46.28;13.55;;;;;;;-0.38;61.33;96860.90;1682866;83;25767;-87
2021/04/28 04:32:34;;;;;;;33.92;14.83;;;;;;;-0.32;61.23;96858.09;1678430;83;25761;-86
2021/04/28 04:35:01;;;;;;;41.85;15.15;;;;;;;-0.27;61.24;96857.15;1682901;84;25719;-87
2021/04/28 04:37:28;;;;;;;36.85;15.23;;;;;;;-0.22;61.16;96854.84;1699409;83;25745;-87
2021/04/28 04:39:56;;;;;;;41.45;17.65;;;;;;;-0.17;61.16;96857.36;1710794;83;27606;-86
2021/04/28 04:42:23;;;;;;;34.33;15.50;;;;;;;-0.13;61.14;96857.89;1710718;82;26614;-86
2021/04/28 04:44:52;;;;;;;37.63;15.63;;;;;;;-0.09;61.14;96861.37;1710924;83;25801;-86
2021/04/28 04:47:19;;;;;;;34.95;16.60;;;;;;;-0.06;61.16;96856.25;1710877;83;25713;-86
2021/04/28 04:49:47;;;;;;;38.75;17.48;;;;;;;-0.04;61.28;96864.40;1710803;83;25844;-86
2021/04/28 04:52:15;;;;;;;41.42;18.90;;;;;;;-0.01;61.43;96864.58;1710771;83;28822;-85
2021/04/28 04:54:42;;;;;;;45.35;19.25;;;;;;;0.00;61.35;96851.66;1710776;83;25712;-85
2021/04/28 04:57:10;;;;;;;39.83;17.40;;;;;;;0.02;61.38;96856.28;1710703;83;25379;-85
2021/04/28 04:59:37;;;;;;;40.85;15.95;;;;;;;0.09;61.24;96852.02;1710806;82;26472;-85
2021/04/28 05:02:05;;;;;;;69.95;20.88;;;;;;;0.16;61.12;96858.34;1708464;83;25741;-85
2021/04/28 05:04:32;;;;;;;76.37;22.05;;;;;;;0.25;61.04;96857.37;1682332;83;27512;-85
2021/04/28 05:07:00;;;;;;;72.40;21.90;;;;;;;0.35;61.00;96851.95;1682257;83;25730;-85
2021/04/28 05:09:27;;;;;;;60.15;22.17;;;;;;;0.41;61.06;96851.78;1682299;83;25768;-84
2021/04/28 05:11:55;;;;;;;47.30;17.98;;;;;;;0.44;61.16;96846.99;1682249;83;25737;-85
2021/04/28 05:14:22;;;;;;;39.78;16.02;;;;;;;0.51;60.96;96841.84;1682104;83;25842;-84
2021/04/28 05:16:49;;;;;;;40.80;16.52;;;;;;;0.57;60.88;96843.38;1682331;83;27408;-86
2021/04/28 05:19:17;;;;;;;52.00;17.55;;;;;;;0.65;60.90;96843.88;1710481;83;26127;-86
2021/04/28 05:21:44;;;;;;;61.30;21.35;;;;;;;0.71;60.90;96848.55;1710761;82;25808;-85
2021/04/28 05:24:12;;;;;;;45.90;18.17;;;;;;;0.80;60.93;96840.91;1710653;83;26382;-86
2021/04/28 05:26:39;;;;;;;38.10;13.85;;;;;;;0.87;60.93;96845.89;1710927;83;25820;-86
2021/04/28 05:29:07;;;;;;;37.20;12.30;;;;;;;0.95;60.58;96834.46;1709407;82;28456;-86
2021/04/28 05:31:34;;;;;;;33.20;12.13;;;;;;;1.04;60.51;96840.10;1688993;83;25750;-86
2021/04/28 05:34:02;;;;;;;27.32;11.57;;;;;;;1.12;60.46;96835.27;1711656;82;25872;-86
2021/04/28 05:36:29;;;;;;;31.85;12.55;;;;;;;1.21;60.30;96838.28;1718434;83;25867;-86
2021/04/28 05:38:59;;;;;;;30.70;12.28;;;;;;;1.30;60.21;96834.12;1718529;82;25866;-86
2021/04/28 05:41:28;;;;;;;30.15;11.80;;;;;;;1.40;59.98;96833.94;1718511;83;28442;-87
2021/04/28 05:43:56;;;;;;;28.87;10.95;;;;;;;1.51;59.77;96830.09;1718421;82;25776;-87
2021/04/28 05:46:25;;;;;;;20.65;9.25;;;;;;;1.63;59.60;96834.89;1718483;83;26007;-87
2021/04/28 05:48:53;;;;;;;22.15;9.18;;;;;;;1.75;59.20;96837.52;1718469;83;26687;-88
2021/04/28 05:51:20;;;;;;;15.15;8.45;;;;;;;1.88;58.94;96833.00;1718499;82;25808;-86
2021/04/28 05:53:48;;;;;;;16.30;8.38;;;;;;;2.01;58.75;96843.11;1718308;83;27541;-87
2021/04/28 05:56:15;;;;;;;22.80;8.08;;;;;;;2.10;59.03;96832.75;1718283;83;25860;-87
2021/04/28 05:58:43;;;;;;;16.87;8.70;;;;;;;2.20;58.90;96830.70;1718522;83;25713;-88
2021/04/28 06:01:11;;;;;;;27.37;8.68;;;;;;;2.31;58.82;96826.33;1718428;83;25832;-86
2021/04/28 06:03:38;;;;;;;17.57;8.95;;;;;;;2.42;58.91;96822.44;1697496;82;25773;-87
2021/04/28 06:06:05;;;;;;;11.12;6.58;;;;;;;2.52;58.88;96823.91;1689582;84;27507;-87
2021/04/28 06:08:33;;;;;;;12.20;6.95;;;;;;;2.64;58.15;96826.17;1689503;83;26044;-87
2021/04/28 06:11:01;;;;;;;14.38;6.90;;;;;;;2.76;57.79;96822.09;1689519;83;25826;-85
2021/04/28 06:13:28;;;;;;;14.68;8.40;;;;;;;2.89;57.78;96815.67;1676897;85;25843;-86
2021/04/28 06:15:56;;;;;;;19.80;9.70;;;;;;;3.03;57.47;96818.88;1686409;84;25772;-86
2021/04/28 06:18:23;;;;;;;21.62;9.60;;;;;;;3.20;56.84;96823.09;1676778;85;27564;-86
2021/04/28 06:20:51;;;;;;;19.07;8.85;;;;;;;3.34;56.50;96817.47;1686185;84;25808;-86
2021/04/28 06:23:19;;;;;;;17.50;9.93;;;;;;;3.47;56.16;96816.35;1676631;84;25851;-85
2021/04/28 06:25:48;;;;;;;18.57;9.18;;;;;;;3.61;55.95;96808.05;1686367;84;25823;-85
2021/04/28 06:28:15;;;;;;;17.65;9.35;;;;;;;3.75;55.81;96809.88;1676799;85;26416;-85
2021/04/28 06:30:43;;;;;;;19.48;9.13;;;;;;;3.88;55.46;96808.73;1686468;83;27556;-85
2021/04/28 06:33:10;;;;;;;19.05;9.63;;;;;;;4.02;55.25;96805.74;1676802;85;25829;-85
2021/04/28 06:35:38;;;;;;;18.23;9.38;;;;;;;4.17;54.84;96799.06;1681662;83;25968;-85
2021/04/28 06:38:05;;;;;;;21.25;8.23;;;;;;;4.28;54.59;96796.74;1683161;85;25817;-86
2021/04/28 06:40:34;;;;;;;20.37;8.65;;;;;;;4.43;54.28;96791.38;1678766;85;26853;-85
2021/04/28 06:43:04;;;;;;;17.35;9.35;;;;;;;4.58;54.48;96794.84;1683036;83;28546;-84
2021/04/28 06:45:34;;;;;;;17.17;9.30;;;;;;;4.78;54.48;96788.88;1678564;83;26015;-86
2021/04/28 06:48:04;;;;;;;18.20;10.08;;;;;;;4.92;53.87;96788.82;1683099;85;25291;-86
2021/04/28 06:50:32;;;;;;;20.90;9.90;;;;;;;5.04;53.53;96785.13;1678705;85;25890;-86
2021/04/28 06:52:59;;;;;;;28.62;11.60;;;;;;;5.15;53.22;96781.94;1683179;83;25732;-87
2021/04/28 06:55:27;;;;;;;26.10;12.70;;;;;;;5.30;53.16;96777.84;1678800;85;27493;-87
2021/04/28 06:57:56;;;;;;;24.60;11.33;;;;;;;5.49;52.63;96772.31;1683003;83;26103;-86
2021/04/28 07:00:29;;;;;;;30.25;12.40;;;;;;;5.64;53.04;96761.00;1678633;83;25810;-86
2021/04/28 07:02:57;;;;;;;33.60;13.45;;;;;;;5.82;52.80;96761.30;1684491;85;26317;-85
2021/04/28 07:05:26;;;;;;;37.63;13.38;;;;;;;6.02;52.54;96755.59;1682049;85;25727;-87
2021/04/28 07:07:55;;;;;;;43.52;16.90;;;;;;;6.21;52.15;96748.66;1680894;85;27518;-85
2021/04/28 07:10:24;;;;;;;45.40;17.42;;;;;;;6.35;51.45;96747.69;1678493;85;25905;-88
2021/04/28 07:12:52;;;;;;;37.23;14.78;;;;;;;6.48;51.30;96751.75;1678593;83;25347;-85
2021/04/28 07:15:20;;;;;;;32.75;13.25;;;;;;;6.63;51.00;96750.26;1678632;85;25883;-85
2021/04/28 07:17:49;;;;;;;23.38;11.53;;;;;;;6.79;50.87;96755.23;1678737;83;25781;-86
2021/04/28 07:20:17;;;;;;;38.92;13.85;;;;;;;6.96;50.42;96752.17;1678668;85;28671;-86
2021/04/28 07:22:45;;;;;;;25.30;12.18;;;;;;;7.13;50.40;96756.09;1678543;85;25919;-85
2021/04/28 07:25:13;;;;;;;18.05;9.75;;;;;;;7.32;50.16;96756.63;1678702;83;25776;-87
2021/04/28 07:27:43;;;;;;;26.15;12.95;;;;;;;7.48;49.56;96748.17;1678592;83;25819;-87
2021/04/28 07:30:13;;;;;;;37.40;17.45;;;;;;;7.68;49.61;96747.31;1678667;83;25687;-87
2021/04/28 07:32:40;;;;;;;33.88;16.73;;;;;;;7.91;49.46;96750.36;1678591;83;27624;-86
2021/04/28 07:35:11;;;;;;;27.67;14.63;;;;;;;8.16;49.09;96748.64;1678517;83;25753;-86
2021/04/28 07:37:38;;;;;;;27.20;12.82;;;;;;;8.53;48.92;96748.94;1678729;83;26273;-86
2021/04/28 07:40:08;;;;;;;24.45;11.78;;;;;;;8.96;47.93;96739.67;1678741;83;26782;-85
2021/04/28 07:42:35;;;;;;;25.20;13.30;;;;;;;9.51;47.84;96739.37;1678697;83;25695;-87
2021/04/28 07:45:05;;;;;;;25.68;12.43;;;;;;;10.12;46.98;96735.86;1678543;83;27438;-87
2021/04/28 07:47:33;;;;;;;23.10;12.70;;;;;;;10.69;46.32;96726.98;1678692;85;26093;-87
2021/04/28 07:50:00;;;;;;;20.05;12.33;;;;;;;11.24;45.68;96738.94;1678579;85;25797;-85
2021/04/28 07:52:28;;;;;;;19.73;9.08;;;;;;;11.78;45.50;96731.13;1678662;83;25824;-86
2021/04/28 07:54:55;;;;;;;16.80;8.28;;;;;;;12.39;44.54;96729.23;1678738;85;25798;-87
2021/04/28 07:57:23;;;;;;;12.00;7.65;;;;;;;12.92;43.96;96722.14;1683034;85;28101;-87
2021/04/28 07:59:51;;;;;;;11.93;7.08;;;;;;;13.38;43.22;96724.89;1678711;83;26141;-86
2021/04/28 08:02:18;;;;;;;11.93;6.22;;;;;;;13.73;42.52;96722.75;1683620;85;25830;-87
2021/04/28 08:04:45;;;;;;;10.50;5.87;;;;;;;14.15;41.92;96719.55;1686339;85;25896;-86
2021/04/28 08:07:13;;;;;;;8.58;5.35;;;;;;;14.49;41.58;96714.90;1686293;83;26505;-87
2021/04/28 08:09:41;;;;;;;8.03;5.50;;;;;;;14.89;40.68;96719.42;1678765;83;27499;-88
2021/04/28 08:12:09;;;;;;;9.43;5.37;;;;;;;14.93;39.55;96704.80;1682894;85;25871;-87
2021/04/28 08:14:37;;;;;;;6.72;4.58;;;;;;;15.08;39.55;96705.78;1678620;83;25933;-87
2021/04/28 08:17:04;;;;;;;9.30;5.17;;;;;;;15.50;39.46;96703.70;1683005;85;25827;-86
2021/04/28 08:19:32;;;;;;;20.37;11.30;;;;;;;15.81;38.17;96710.25;1678655;85;25828;-88
2021/04/28 08:21:59;;;;;;;19.80;11.20;;;;;;;16.19;37.70;96704.48;1683053;85;26632;-87
2021/04/28 08:24:27;;;;;;;13.72;7.85;;;;;;;16.71;37.41;96706.94;1678610;83;25549;-87
2021/04/28 08:26:55;;;;;;;10.10;6.12;;;;;;;17.15;36.59;96696.41;1683275;85;25694;-87
2021/04/28 08:29:22;;;;;;;12.35;7.03;;;;;;;17.53;35.53;96697.28;1678802;83;26692;-89
2021/04/28 08:31:50;;;;;;;6.67;5.03;;;;;;;17.86;35.88;96695.13;1683588;85;25962;-89
2021/04/28 08:34:18;;;;;;;9.15;4.97;;;;;;;18.12;35.51;96689.88;1679061;83;28386;-87
2021/04/28 08:36:45;;;;;;;8.65;5.10;;;;;;;18.38;34.51;96692.55;1683035;84;25938;-88
2021/04/28 08:39:13;;;;;;;5.95;4.05;;;;;;;18.70;34.57;96689.73;1678681;83;25733;-87
2021/04/28 08:41:40;;;;;;;7.55;4.05;;;;;;;18.92;33.39;96689.90;1683198;85;25723;-89
2021/04/28 08:44:09;;;;;;;6.45;4.75;;;;;;;19.28;32.37;96685.03;1678680;83;25796;-87
2021/04/28 08:46:38;;;;;;;6.42;4.60;;;;;;;19.39;32.68;96684.67;1683185;85;28403;-87
2021/04/28 08:49:07;;;;;;;7.25;4.80;;;;;;;19.74;32.41;96667.17;1678728;83;26079;-88
2021/04/28 08:51:37;;;;;;;6.55;4.42;;;;;;;20.30;32.26;96692.63;1683107;85;25753;-87
2021/04/28 08:54:06;;;;;;;7.83;4.85;;;;;;;20.62;31.72;96683.81;1678711;83;27861;-87
2021/04/28 08:56:35;;;;;;;6.15;4.60;;;;;;;20.72;30.92;96684.23;1683004;85;26375;-87
2021/04/28 08:59:05;;;;;;;9.88;4.53;;;;;;;20.89;30.79;96677.69;1678728;83;28365;-87
2021/04/28 09:01:36;;;;;;;5.28;4.20;;;;;;;21.04;30.50;96681.61;1682836;85;26042;-87
2021/04/28 09:04:13;;;;;;;7.50;4.85;;;;;;;21.32;30.38;96674.38;1681823;83;26367;-87
2021/04/28 09:06:41;;;;;;;6.47;4.47;;;;;;;21.59;29.37;96685.23;1699597;83;25821;-87
2021/04/28 09:09:14;;;;;;;5.90;4.15;;;;;;;21.40;28.44;96679.74;1710797;83;26417;-87
2021/04/28 09:11:46;;;;;;;5.87;4.67;;;;;;;21.53;28.11;96674.88;1710704;83;28459;-87
2021/04/28 09:14:26;;;;;;;5.90;4.72;;;;;;;21.45;28.08;96668.14;1710634;83;25762;-88
2021/04/28 09:17:04;;;;;;;7.37;5.35;;;;;;;21.48;27.84;96665.36;1710625;83;25779;-86
2021/04/28 09:19:37;;;;;;;4.87;4.22;;;;;;;21.62;27.95;96657.97;1710650;83;25801;-87
2021/04/28 09:22:10;;;;;;;10.95;5.10;;;;;;;21.76;28.29;96658.02;1710819;83;25831;-86
2021/04/28 09:24:53;;;;;;;9.35;4.58;;;;;;;21.95;28.06;96657.98;1710609;82;27512;-86
2021/04/28 09:27:37;;;;;;;6.37;4.62;;;;;;;22.18;27.73;96655.09;1710685;83;25748;-86
2021/04/28 09:30:09;;;;;;;8.80;4.80;;;;;;;22.18;27.22;96646.85;1710562;82;25918;-86
2021/04/28 09:32:39;;;;;;;6.03;4.43;;;;;;;22.17;27.24;96643.03;1711146;83;26717;-86
2021/04/28 09:35:18;;;;;;;7.72;4.95;;;;;;;22.04;26.61;96646.02;1710878;83;26276;-86
2021/04/28 09:38:00;;;;;;;10.05;4.80;;;;;;;21.92;26.83;96634.10;1687038;84;27458;-86
2021/04/28 09:40:51;;;;;;;6.28;4.60;;;;;;;21.99;27.05;96635.66;1679574;83;25823;-86
2021/04/28 09:43:18;;;;;;;5.40;3.20;;;;;;;22.04;26.19;96632.27;1683089;85;25910;-86
2021/04/28 09:45:51;;;;;;;5.97;3.22;;;;;;;21.99;26.76;96618.61;1678820;83;25829;-87
2021/04/28 09:48:25;;;;;;;6.17;4.05;;;;;;;22.19;26.33;96617.43;1683226;85;25775;-87
2021/04/28 09:51:10;;;;;;;5.42;3.70;;;;;;;22.18;26.35;96612.49;1678819;83;27499;-87
2021/04/28 09:53:37;;;;;;;5.37;4.12;;;;;;;22.33;25.93;96610.01;1683225;85;26080;-88
2021/04/28 09:56:17;;;;;;;8.25;3.92;;;;;;;22.31;25.86;96613.62;1678823;85;25773;-87
2021/04/28 09:58:50;;;;;;;6.35;4.20;;;;;;;22.45;25.91;96606.75;1683156;85;26949;-87
2021/04/28 10:01:32;;;;;;;6.65;3.75;;;;;;;22.49;24.21;96605.80;1678809;83;25761;-86
2021/04/28 10:04:02;;;;;;;7.22;3.52;;;;;;;22.09;24.65;96603.89;1685967;85;27508;-87
2021/04/28 10:06:50;;;;;;;4.83;3.72;;;;;;;21.94;24.40;96595.34;1678861;83;25746;-86
2021/04/28 10:09:34;;;;;;;4.58;3.85;;;;;;;21.81;24.23;96594.76;1683233;85;25863;-86
2021/04/28 10:12:09;;;;;;;11.15;3.90;;;;;;;21.45;25.13;96589.89;1678765;83;26772;-85
2021/04/28 10:14:38;;;;;;;7.33;4.05;;;;;;;21.32;25.35;96582.98;1683183;85;25847;-84
2021/04/28 10:17:07;;;;;;;5.10;3.70;;;;;;;21.60;25.09;96577.84;1678801;85;27678;-85
2021/04/28 10:19:38;;;;;;;5.70;3.47;;;;;;;22.00;24.95;96576.28;1683096;85;26265;-85
2021/04/28 10:22:12;;;;;;;5.97;3.33;;;;;;;22.19;24.53;96573.45;1686325;83;25804;-85
2021/04/28 10:24:42;;;;;;;6.97;3.27;;;;;;;22.05;24.30;96559.70;1683107;85;25814;-85
2021/04/28 10:27:11;;;;;;;3.92;3.33;;;;;;;22.16;24.58;96561.69;1678695;83;25711;-85
2021/04/28 10:29:40;;;;;;;6.00;3.58;;;;;;;22.33;24.69;96567.95;1683127;85;27506;-84
2021/04/28 10:32:09;;;;;;;6.10;3.30;;;;;;;22.70;24.33;96555.87;1678603;83;26045;-84
2021/04/28 10:34:41;;;;;;;4.72;2.98;;;;;;;23.07;23.94;96566.57;1683182;83;26059;-86
2021/04/28 10:37:09;;;;;;;7.15;3.30;;;;;;;23.33;23.14;96559.89;1678755;83;25687;-85
2021/04/28 10:39:37;;;;;;;4.70;2.95;;;;;;;23.41;22.95;96559.72;1683227;85;25738;-85
2021/04/28 10:42:30;;;;;;;5.17;2.80;;;;;;;23.53;23.32;96562.74;1678686;83;27508;-85
2021/04/28 10:44:58;;;;;;;5.72;3.05;;;;;;;23.83;23.17;96567.44;1675227;84;25902;-85
2021/04/28 10:47:34;;;;;;;6.10;3.55;;;;;;;24.17;22.72;96570.09;1678651;83;26346;-86
2021/04/28 10:50:24;;;;;;;4.70;3.42;;;;;;;24.34;22.45;96559.17;1682980;85;26033;-85
2021/04/28 10:53:00;;;;;;;6.30;3.42;;;;;;;24.49;21.59;96559.30;1678721;83;25765;-85
2021/04/28 10:55:45;;;;;;;5.37;3.05;;;;;;;24.46;21.63;96548.89;1683159;85;28357;-84
2021/04/28 10:58:31;;;;;;;9.23;3.35;;;;;;;24.57;21.34;96552.41;1678678;83;25431;-84
2021/04/28 11:01:04;;;;;;;7.15;3.02;;;;;;;24.65;21.75;96543.89;1683179;85;25782;-85
2021/04/28 11:03:45;;;;;;;3.90;2.95;;;;;;;24.73;21.71;96541.16;1681134;84;26742;-85
2021/04/28 11:06:25;;;;;;;5.65;3.20;;;;;;;24.43;21.16;96542.07;1682329;83;25870;-85
2021/04/28 11:09:03;;;;;;;4.22;3.08;;;;;;;24.32;21.40;96535.23;1682097;83;27449;-84
2021/04/28 11:11:38;;;;;;;4.72;3.08;;;;;;;24.32;21.69;96537.98;1682052;85;25886;-84
2021/04/28 11:14:18;;;;;;;5.45;3.10;;;;;;;24.01;21.91;96536.65;1682123;83;25854;-85
2021/04/28 11:16:49;;;;;;;6.53;3.17;;;;;;;23.60;21.91;96534.17;1682143;83;26350;-85
2021/04/28 11:19:35;;;;;;;6.83;3.22;;;;;;;23.24;22.01;96537.81;1682097;83;25801;-85
2021/04/28 11:22:19;;;;;;;4.53;2.92;;;;;;;22.97;22.92;96529.66;1682227;83;29062;-84
2021/04/28 11:25:01;;;;;;;4.55;3.35;;;;;;;23.45;22.43;96526.27;1668772;83;25763;-85
2021/04/28 11:28:03;;;;;;;5.33;2.90;;;;;;;23.89;21.91;96529.55;1694359;83;25804;-85
2021/04/28 11:30:36;;;;;;;3.55;2.80;;;;;;;24.14;21.51;96528.84;1708169;83;26325;-85
2021/04/28 11:33:33;;;;;;;4.15;2.80;;;;;;;24.27;21.29;96518.85;1710666;83;25742;-85
2021/04/28 11:36:09;;;;;;;5.28;3.85;;;;;;;24.23;21.25;96521.42;1710576;82;26778;-84
2021/04/28 11:38:44;;;;;;;4.33;2.90;;;;;;;24.25;21.66;96510.08;1710686;83;25788;-86
2021/04/28 11:41:19;;;;;;;5.08;2.60;;;;;;;24.01;20.75;96509.09;1710730;83;25785;-86